createdAt,value
2022-09-07T00:01:16.520Z,20.05
2022-09-07T00:03:43.617Z,20.29
2022-09-07T00:06:12.987Z,20.27
2022-09-07T00:08:41.458Z,20.23
2022-09-07T00:11:12.736Z,20.20
2022-09-07T00:13:41.475Z,20.02
2022-09-07T00:16:12.285Z,20.17
2022-09-07T00:18:45.100Z,19.93
2022-09-07T00:21:14.611Z,20.14
2022-09-07T00:23:41.908Z,20.12
2022-09-07T00:26:11.813Z,20.17
2022-09-07T00:28:39.353Z,20.08
2022-09-07T00:31:12.021Z,20.17
2022-09-07T00:33:39.891Z,20.12
2022-09-07T00:36:07.143Z,20.18
2022-09-07T00:38:34.936Z,20.05
2022-09-07T00:41:02.358Z,20.25
2022-09-07T00:43:35.866Z,20.32
2022-09-07T00:46:04.819Z,20.35
2022-09-07T00:48:56.727Z,20.38
2022-09-07T00:51:36.583Z,20.31
2022-09-07T00:54:11.654Z,19.86
2022-09-07T00:56:42.369Z,19.38
2022-09-07T00:59:13.168Z,18.97
2022-09-07T01:01:40.522Z,18.70
2022-09-07T01:04:08.695Z,18.67
2022-09-07T01:06:38.149Z,18.47
2022-09-07T01:09:10.253Z,18.53
2022-09-07T01:11:38.425Z,18.66
2022-09-07T01:14:08.947Z,18.39
2022-09-07T01:17:08.153Z,18.28
2022-09-07T01:20:13.567Z,18.31
2022-09-07T01:23:30.075Z,18.37
2022-09-07T01:26:13.826Z,18.37
2022-09-07T01:28:42.148Z,18.42
2022-09-07T01:31:48.788Z,18.37
2022-09-07T01:34:25.382Z,18.36
2022-09-07T01:37:10.447Z,18.39
2022-09-07T01:39:58.662Z,18.23
2022-09-07T01:42:33.738Z,18.35
2022-09-07T01:45:04.223Z,18.32
2022-09-07T01:47:37.073Z,18.36
2022-09-07T01:50:25.293Z,18.40
2022-09-07T01:52:58.147Z,18.45
2022-09-07T01:55:46.599Z,18.38
2022-09-07T01:58:27.512Z,17.98
2022-09-07T02:01:01.808Z,18.16
2022-09-07T02:03:35.975Z,18.10
2022-09-07T02:06:14.292Z,18.30
2022-09-07T02:08:49.328Z,18.14
2022-09-07T02:11:24.538Z,18.01
2022-09-07T02:13:58.526Z,18.25
2022-09-07T02:16:30.815Z,18.23
2022-09-07T02:19:19.836Z,18.15
2022-09-07T02:21:53.825Z,18.04
2022-09-07T02:24:35.199Z,18.05
2022-09-07T02:27:09.217Z,17.95
2022-09-07T02:29:36.413Z,18.04
2022-09-07T02:32:04.257Z,18.04
2022-09-07T02:34:32.085Z,17.69
2022-09-07T02:37:01.865Z,17.99
2022-09-07T02:39:29.332Z,18.01
2022-09-07T02:41:56.391Z,18.06
2022-09-07T02:44:26.669Z,17.91
2022-09-07T02:47:11.931Z,17.97
2022-09-07T02:49:39.265Z,17.98
2022-09-07T02:52:15.277Z,17.98
2022-09-07T02:55:06.353Z,17.95
2022-09-07T02:57:39.768Z,17.89
2022-09-07T03:00:26.092Z,17.54
2022-09-07T03:03:23.518Z,17.83
2022-09-07T03:05:50.581Z,17.87
2022-09-07T03:08:25.829Z,17.53
2022-09-07T03:10:54.078Z,17.82
2022-09-07T03:13:23.716Z,17.77
2022-09-07T03:15:55.515Z,17.74
2022-09-07T03:18:25.099Z,17.68
2022-09-07T03:20:52.751Z,17.65
2022-09-07T03:23:19.834Z,17.59
2022-09-07T03:25:50.146Z,17.51
2022-09-07T03:28:17.505Z,17.46
2022-09-07T03:30:47.117Z,17.40
2022-09-07T03:33:17.468Z,17.32
2022-09-07T03:35:46.325Z,17.34
2022-09-07T03:38:13.471Z,17.28
2022-09-07T03:40:40.609Z,17.22
2022-09-07T03:43:07.707Z,17.23
2022-09-07T03:45:35.046Z,17.12
2022-09-07T03:48:02.263Z,17.09
2022-09-07T03:50:29.302Z,17.12
2022-09-07T03:52:56.360Z,17.12
2022-09-07T03:55:23.423Z,17.13
2022-09-07T03:57:50.492Z,17.16
2022-09-07T04:00:17.672Z,17.09
2022-09-07T04:02:44.748Z,17.05
2022-09-07T04:05:11.870Z,17.01
2022-09-07T04:07:38.958Z,16.96
2022-09-07T04:10:06.443Z,16.87
2022-09-07T04:12:33.474Z,16.87
2022-09-07T04:15:00.512Z,16.86
2022-09-07T04:17:27.747Z,16.83
2022-09-07T04:19:55.727Z,16.80
2022-09-07T04:22:22.776Z,16.81
2022-09-07T04:24:50.071Z,16.79
2022-09-07T04:27:17.154Z,16.82
2022-09-07T04:29:44.204Z,16.80
2022-09-07T04:32:15.516Z,16.75
2022-09-07T04:34:43.363Z,16.47
2022-09-07T04:37:10.496Z,16.69
2022-09-07T04:39:37.590Z,16.61
2022-09-07T04:42:04.734Z,16.63
2022-09-07T04:44:31.773Z,16.64
2022-09-07T04:46:58.867Z,16.71
2022-09-07T04:49:26.003Z,16.67
2022-09-07T04:51:53.043Z,16.60
2022-09-07T04:54:20.101Z,16.51
2022-09-07T04:56:47.128Z,16.68
2022-09-07T04:59:14.196Z,16.65
2022-09-07T05:01:41.314Z,16.91
2022-09-07T05:04:08.551Z,16.74
2022-09-07T05:06:35.731Z,16.65
2022-09-07T05:09:02.826Z,16.70
2022-09-07T05:11:30.256Z,16.64
2022-09-07T05:13:59.096Z,16.73
2022-09-07T05:16:27.217Z,16.78
2022-09-07T05:18:57.064Z,16.81
2022-09-07T05:21:27.555Z,16.62
2022-09-07T05:23:56.813Z,16.96
2022-09-07T05:26:26.808Z,16.95
2022-09-07T05:31:41.256Z,16.92
2022-09-07T05:36:56.755Z,17.18
2022-09-07T05:39:24.180Z,17.04
2022-09-07T05:41:51.251Z,17.02
2022-09-07T05:47:05.775Z,17.06
2022-09-07T05:49:32.850Z,17.31
2022-09-07T05:51:59.903Z,17.28
2022-09-07T05:54:26.974Z,17.13
2022-09-07T05:56:54.016Z,17.22
2022-09-07T05:59:21.209Z,17.29
2022-09-07T06:01:48.862Z,17.14
2022-09-07T06:04:16.167Z,17.28
2022-09-07T06:06:47.817Z,17.41
2022-09-07T06:09:29.854Z,17.45
2022-09-07T06:11:57.657Z,17.51
2022-09-07T06:14:25.053Z,17.56
2022-09-07T06:16:52.160Z,17.54
2022-09-07T06:19:19.238Z,17.51
2022-09-07T06:21:46.255Z,17.51
2022-09-07T06:24:13.525Z,17.38
2022-09-07T06:26:40.591Z,17.72
2022-09-07T06:29:09.457Z,17.82
2022-09-07T06:34:24.225Z,17.87
2022-09-07T06:36:51.295Z,17.96
2022-09-07T06:39:18.618Z,18.13
2022-09-07T06:42:01.261Z,18.24
2022-09-07T06:44:31.313Z,18.12
2022-09-07T06:49:28.632Z,18.42
2022-09-07T06:51:55.669Z,18.25
2022-09-07T06:57:10.011Z,18.77
2022-09-07T06:59:37.768Z,18.50
2022-09-07T07:02:11.536Z,18.82
2022-09-07T07:04:41.107Z,18.84
2022-09-07T07:07:13.834Z,18.99
2022-09-07T07:09:41.825Z,19.13
2022-09-07T07:12:09.976Z,19.16
2022-09-07T07:14:39.725Z,19.20
2022-09-07T07:17:08.366Z,19.06
2022-09-07T07:19:35.421Z,19.32
2022-09-07T07:22:14.446Z,19.47
2022-09-07T07:24:49.507Z,19.66
2022-09-07T07:27:17.176Z,19.77
2022-09-07T07:29:44.408Z,19.80
2022-09-07T07:32:11.464Z,19.90
2022-09-07T07:34:38.561Z,19.97
2022-09-07T07:37:05.593Z,19.85
2022-09-07T07:42:21.246Z,20.18
2022-09-07T07:44:48.754Z,20.37
2022-09-07T07:47:15.866Z,20.23
2022-09-07T07:49:42.948Z,20.34
2022-09-07T07:54:56.949Z,20.69
2022-09-07T07:57:23.935Z,20.64
2022-09-07T07:59:50.926Z,20.78
2022-09-07T08:02:18.015Z,21.08
2022-09-07T08:04:45.115Z,21.12
2022-09-07T08:07:12.521Z,21.35
2022-09-07T08:09:41.008Z,21.29
2022-09-07T08:12:11.123Z,21.51
2022-09-07T08:14:42.200Z,21.67
2022-09-07T08:17:11.571Z,21.76
2022-09-07T08:19:39.228Z,21.72
2022-09-07T08:22:06.762Z,21.85
2022-09-07T08:24:33.784Z,21.70
2022-09-07T08:27:01.087Z,21.88
2022-09-07T08:29:31.314Z,21.83
2022-09-07T08:32:00.669Z,22.05
2022-09-07T08:34:27.631Z,21.98
2022-09-07T08:36:54.821Z,22.31
2022-09-07T08:39:21.863Z,22.57
2022-09-07T08:41:55.551Z,22.52
2022-09-07T08:44:28.215Z,22.51
2022-09-07T08:47:01.285Z,22.69
2022-09-07T08:49:46.440Z,22.84
2022-09-07T08:52:18.683Z,23.26
2022-09-07T08:54:57.855Z,23.42
2022-09-07T08:57:30.951Z,23.43
2022-09-07T09:00:04.537Z,23.58
2022-09-07T09:02:36.605Z,23.47
2022-09-07T09:05:25.228Z,23.72
2022-09-07T09:08:04.070Z,23.61
2022-09-07T09:10:48.562Z,23.30
2022-09-07T09:13:29.501Z,23.03
2022-09-07T09:16:18.603Z,22.81
2022-09-07T09:19:23.367Z,22.99
2022-09-07T09:22:02.478Z,22.80
2022-09-07T09:24:37.564Z,23.07
2022-09-07T09:27:04.767Z,23.46
2022-09-07T09:29:33.504Z,23.41
2022-09-07T09:32:37.625Z,23.74
2022-09-07T09:35:16.359Z,23.53
2022-09-07T09:37:43.920Z,23.36
2022-09-07T09:40:23.600Z,23.59
2022-09-07T09:43:21.210Z,23.65
2022-09-07T09:48:40.371Z,23.95
2022-09-07T09:54:18.337Z,24.58
2022-09-07T09:56:46.833Z,24.87
2022-09-07T10:05:30.779Z,24.55
2022-09-07T10:07:58.152Z,24.00
2022-09-07T10:10:29.639Z,24.30
2022-09-07T10:12:57.444Z,24.00
2022-09-07T10:15:29.191Z,23.81
2022-09-07T10:17:57.913Z,23.23
2022-09-07T10:20:37.240Z,23.32
2022-09-07T10:23:18.022Z,23.53
2022-09-07T10:25:45.220Z,23.23
2022-09-07T10:28:15.307Z,23.37
2022-09-07T10:31:15.826Z,23.13
2022-09-07T10:34:26.519Z,23.13
2022-09-07T10:37:10.252Z,23.37
2022-09-07T10:39:52.714Z,23.70
2022-09-07T10:42:39.502Z,23.38
2022-09-07T10:45:15.653Z,23.83
2022-09-07T10:48:01.172Z,24.10
2022-09-07T10:50:39.551Z,24.59
2022-09-07T10:53:43.397Z,24.85
2022-09-07T10:56:15.193Z,24.96
2022-09-07T10:59:03.512Z,25.47
2022-09-07T11:01:58.408Z,25.98
2022-09-07T11:04:47.894Z,26.21
2022-09-07T11:07:27.121Z,26.05
2022-09-07T11:10:15.987Z,25.82
2022-09-07T11:12:45.131Z,25.61
2022-09-07T11:15:12.114Z,25.66
2022-09-07T11:17:52.800Z,25.78
2022-09-07T11:20:42.471Z,25.63
2022-09-07T11:23:15.498Z,25.64
2022-09-07T11:25:55.559Z,25.75
2022-09-07T11:28:43.062Z,25.78
2022-09-07T11:31:20.157Z,25.60
2022-09-07T11:34:25.656Z,25.23
2022-09-07T11:37:03.140Z,25.09
2022-09-07T11:39:44.363Z,24.89
2022-09-07T11:45:38.015Z,24.60
2022-09-07T11:48:19.335Z,24.42
2022-09-07T11:50:52.683Z,24.58
2022-09-07T11:53:27.738Z,24.49
2022-09-07T11:56:00.694Z,24.61
2022-09-07T11:58:51.268Z,24.58
2022-09-07T12:01:38.311Z,24.52
2022-09-07T12:04:15.409Z,24.44
2022-09-07T12:07:04.230Z,24.38
2022-09-07T12:10:06.458Z,24.04
2022-09-07T12:12:56.650Z,24.33
2022-09-07T12:15:47.871Z,24.42
2022-09-07T12:18:52.444Z,24.56
2022-09-07T12:21:42.228Z,24.47
2022-09-07T12:24:35.400Z,24.56
2022-09-07T12:27:09.731Z,24.43
2022-09-07T12:29:37.205Z,24.69
2022-09-07T12:32:53.660Z,25.11
2022-09-07T12:34:57.789Z,25.51
2022-09-07T12:37:27.507Z,25.50
2022-09-07T12:40:35.738Z,25.42
2022-09-07T12:43:14.715Z,25.80
2022-09-07T12:45:42.161Z,25.81
2022-09-07T12:48:15.493Z,25.65
2022-09-07T12:50:58.895Z,25.96
2022-09-07T12:53:33.595Z,25.89
2022-09-07T12:56:22.351Z,25.88
2022-09-07T12:58:49.278Z,25.79
2022-09-07T13:01:28.241Z,25.78
2022-09-07T13:04:20.277Z,25.78
2022-09-07T13:07:09.188Z,25.63
2022-09-07T13:09:38.491Z,25.39
2022-09-07T13:12:53.681Z,25.83
2022-09-07T13:15:40.772Z,26.25
2022-09-07T13:18:28.507Z,26.15
2022-09-07T13:21:07.737Z,25.99
2022-09-07T13:23:37.911Z,25.87
2022-09-07T13:26:08.607Z,25.64
2022-09-07T13:28:51.993Z,25.60
2022-09-07T13:31:48.497Z,25.62
2022-09-07T13:34:33.889Z,25.66
2022-09-07T13:37:02.342Z,25.38
2022-09-07T13:39:39.004Z,25.10
2022-09-07T13:42:06.722Z,25.41
2022-09-07T13:44:34.658Z,25.28
2022-09-07T13:47:33.382Z,25.40
2022-09-07T13:50:11.703Z,25.47
2022-09-07T13:52:55.102Z,25.56
2022-09-07T13:55:27.694Z,25.50
2022-09-07T13:58:06.727Z,25.49
2022-09-07T14:00:34.711Z,25.40
2022-09-07T14:03:16.401Z,25.45
2022-09-07T14:05:43.435Z,25.94
2022-09-07T14:08:28.002Z,26.29
2022-09-07T14:10:55.483Z,26.23
2022-09-07T14:13:22.543Z,26.19
2022-09-07T14:15:50.887Z,25.95
2022-09-07T14:18:22.614Z,25.60
2022-09-07T14:20:51.986Z,26.12
2022-09-07T14:23:29.888Z,26.35
2022-09-07T14:26:16.586Z,26.59
2022-09-07T14:28:46.873Z,26.75
2022-09-07T14:31:17.138Z,26.72
2022-09-07T14:34:02.405Z,26.97
2022-09-07T14:36:45.372Z,26.58
2022-09-07T14:39:18.566Z,26.13
2022-09-07T14:41:46.213Z,26.24
2022-09-07T14:44:38.691Z,26.03
2022-09-07T14:47:30.308Z,26.30
2022-09-07T14:50:05.673Z,26.28
2022-09-07T14:52:42.979Z,26.10
2022-09-07T14:55:31.695Z,26.18
2022-09-07T14:58:13.910Z,26.23
2022-09-07T15:00:46.561Z,26.35
2022-09-07T15:03:28.887Z,26.95
2022-09-07T15:06:00.846Z,26.81
2022-09-07T15:08:39.199Z,27.24
2022-09-07T15:14:01.488Z,26.70
2022-09-07T15:16:34.342Z,26.51
2022-09-07T15:19:17.013Z,26.16
2022-09-07T15:21:44.849Z,25.97
2022-09-07T15:24:12.055Z,25.50
2022-09-07T15:27:04.283Z,25.66
2022-09-07T15:29:32.080Z,25.70
2022-09-07T15:32:04.485Z,25.64
2022-09-07T15:34:32.653Z,25.53
2022-09-07T15:37:01.694Z,25.42
2022-09-07T15:39:30.517Z,25.43
2022-09-07T15:41:58.874Z,25.53
2022-09-07T15:44:28.076Z,25.48
2022-09-07T15:49:50.019Z,26.38
2022-09-07T15:52:18.378Z,26.53
2022-09-07T15:54:45.504Z,26.52
2022-09-07T15:59:59.727Z,26.29
2022-09-07T16:05:13.814Z,27.33
2022-09-07T16:10:31.095Z,29.70
2022-09-07T16:13:01.227Z,30.00
2022-09-07T16:15:29.450Z,30.14
2022-09-07T16:17:56.518Z,29.95
2022-09-07T16:20:23.560Z,30.46
2022-09-07T16:25:39.664Z,29.38
2022-09-07T16:28:07.207Z,28.47
2022-09-07T16:30:34.303Z,27.59
2022-09-07T16:33:01.431Z,27.10
2022-09-07T16:35:28.594Z,26.29
2022-09-07T16:40:43.736Z,25.77
2022-09-07T16:43:10.797Z,25.65
2022-09-07T16:48:24.848Z,26.16
2022-09-07T16:51:00.330Z,26.31
2022-09-07T16:53:30.214Z,26.22
2022-09-07T16:56:16.675Z,27.05
2022-09-07T16:58:49.893Z,27.87
2022-09-07T17:01:20.070Z,29.02
2022-09-07T17:03:49.387Z,28.68
2022-09-07T17:06:18.604Z,27.71
2022-09-07T17:08:45.788Z,26.84
2022-09-07T17:11:19.122Z,26.60
2022-09-07T17:13:46.787Z,26.17
2022-09-07T17:16:17.705Z,25.21
2022-09-07T17:21:36.336Z,25.40
2022-09-07T17:24:05.509Z,25.29
2022-09-07T17:26:33.156Z,25.24
2022-09-07T17:29:01.207Z,25.22
2022-09-07T17:34:21.080Z,25.02
2022-09-07T17:36:48.294Z,24.75
2022-09-07T17:39:17.554Z,24.75
2022-09-07T17:41:45.525Z,24.91
2022-09-07T17:44:12.719Z,24.93
2022-09-07T17:46:39.743Z,24.69
2022-09-07T17:49:10.100Z,24.62
2022-09-07T17:51:37.126Z,24.50
2022-09-07T17:54:11.108Z,24.33
2022-09-07T17:56:40.411Z,24.24
2022-09-07T18:01:55.437Z,23.97
2022-09-07T18:04:23.477Z,23.67
2022-09-07T18:06:50.817Z,23.75
2022-09-07T18:09:19.500Z,23.63
2022-09-07T18:11:48.548Z,23.44
2022-09-07T18:14:16.928Z,23.26
2022-09-07T18:16:45.929Z,23.21
2022-09-07T18:19:14.069Z,23.08
2022-09-07T18:21:43.021Z,22.91
2022-09-07T18:24:22.020Z,22.97
2022-09-07T18:26:52.439Z,22.85
2022-09-07T18:29:32.324Z,22.83
2022-09-07T18:32:01.143Z,22.87
2022-09-07T18:34:31.871Z,22.56
2022-09-07T18:36:59.840Z,22.55
2022-09-07T18:39:27.540Z,22.47
2022-09-07T18:41:54.924Z,22.48
2022-09-07T18:47:09.015Z,22.51
2022-09-07T18:49:36.024Z,22.28
2022-09-07T18:54:50.884Z,22.24
2022-09-07T18:57:17.894Z,22.00
2022-09-07T18:59:45.006Z,22.08
2022-09-07T19:02:12.205Z,22.08
2022-09-07T19:07:29.832Z,21.85
2022-09-07T19:09:58.067Z,21.89
2022-09-07T19:12:25.095Z,21.76
2022-09-07T19:14:52.145Z,21.63
2022-09-07T19:17:19.550Z,21.60
2022-09-07T19:19:46.967Z,21.46
2022-09-07T19:22:13.947Z,21.34
2022-09-07T19:24:40.963Z,20.72
2022-09-07T19:27:08.006Z,20.83
2022-09-07T19:29:35.191Z,20.97
2022-09-07T19:32:06.587Z,20.82
2022-09-07T19:34:35.429Z,20.77
2022-09-07T19:37:02.953Z,20.74
2022-09-07T19:39:30.095Z,20.68
2022-09-07T19:41:57.209Z,20.70
2022-09-07T19:44:24.300Z,20.58
2022-09-07T19:46:51.443Z,20.53
2022-09-07T19:49:18.459Z,20.77
2022-09-07T19:51:45.935Z,20.61
2022-09-07T19:54:13.613Z,20.50
2022-09-07T19:56:42.698Z,20.26
2022-09-07T19:59:10.298Z,20.36
2022-09-07T20:01:39.964Z,20.05
2022-09-07T20:04:10.455Z,20.09
2022-09-07T20:06:39.366Z,20.25
2022-09-07T20:09:07.920Z,20.22
2022-09-07T20:11:35.859Z,19.98
2022-09-07T20:14:03.686Z,19.83
2022-09-07T20:16:31.255Z,19.75
2022-09-07T20:18:59.643Z,19.65
2022-09-07T20:21:26.998Z,19.47
2022-09-07T20:23:54.055Z,19.68
2022-09-07T20:26:22.326Z,19.56
2022-09-07T20:29:10.973Z,19.49
2022-09-07T20:31:44.018Z,19.56
2022-09-07T20:34:11.283Z,19.31
2022-09-07T20:36:38.286Z,19.38
2022-09-07T20:39:05.405Z,19.32
2022-09-07T20:41:34.046Z,19.22
2022-09-07T20:44:04.147Z,19.19
2022-09-07T20:46:31.761Z,18.91
2022-09-07T20:48:59.139Z,18.87
2022-09-07T20:51:26.153Z,18.78
2022-09-07T20:53:53.631Z,18.86
2022-09-07T20:56:22.743Z,18.76
2022-09-07T20:58:55.177Z,18.72
2022-09-07T21:01:22.692Z,18.74
2022-09-07T21:03:52.423Z,18.75
2022-09-07T21:06:21.552Z,18.72
2022-09-07T21:08:49.560Z,18.49
2022-09-07T21:11:23.974Z,18.72
2022-09-07T21:13:55.895Z,18.66
2022-09-07T21:16:23.029Z,18.71
2022-09-07T21:18:54.376Z,18.68
2022-09-07T21:21:23.198Z,18.49
2022-09-07T21:23:59.293Z,18.41
2022-09-07T21:26:27.908Z,18.47
2022-09-07T21:28:59.658Z,18.45
2022-09-07T21:31:29.018Z,18.21
2022-09-07T21:33:58.418Z,18.41
2022-09-07T21:36:26.522Z,18.31
2022-09-07T21:38:54.192Z,18.30
2022-09-07T21:41:23.151Z,18.18
2022-09-07T21:43:55.322Z,18.11
2022-09-07T21:46:22.724Z,17.97
2022-09-07T21:48:49.838Z,18.04
2022-09-07T21:51:18.353Z,17.93
2022-09-07T21:53:45.421Z,17.91
2022-09-07T21:56:14.238Z,17.86
2022-09-07T21:58:41.623Z,17.84
2022-09-07T22:01:14.329Z,17.83
2022-09-07T22:03:41.700Z,17.83
2022-09-07T22:06:10.018Z,17.91
2022-09-07T22:08:38.759Z,17.87
2022-09-07T22:11:11.498Z,17.72
2022-09-07T22:13:39.299Z,17.65
2022-09-07T22:16:07.316Z,17.57
2022-09-07T22:18:37.118Z,17.54
2022-09-07T22:21:10.059Z,17.56
2022-09-07T22:23:40.266Z,17.49
2022-09-07T22:26:08.340Z,17.34
2022-09-07T22:28:36.381Z,17.43
2022-09-07T22:31:13.218Z,17.37
2022-09-07T22:33:41.400Z,17.33
2022-09-07T22:36:23.355Z,17.21
2022-09-07T22:38:53.004Z,17.22
2022-09-07T22:41:22.868Z,17.18
2022-09-07T22:43:50.877Z,17.12
2022-09-07T22:46:21.192Z,17.08
2022-09-07T22:48:49.277Z,17.16
2022-09-07T22:51:16.896Z,16.92
2022-09-07T22:53:44.405Z,17.01
2022-09-07T22:56:18.263Z,17.15
2022-09-07T22:58:51.250Z,17.06
2022-09-07T23:01:19.289Z,17.08
2022-09-07T23:03:46.824Z,17.10
2022-09-07T23:06:32.374Z,16.99
2022-09-07T23:09:01.176Z,16.83
2022-09-07T23:11:29.735Z,16.78
2022-09-07T23:13:59.179Z,16.76
2022-09-07T23:16:27.684Z,16.62
2022-09-07T23:18:57.049Z,16.89
2022-09-07T23:21:24.651Z,16.82
2022-09-07T23:23:53.659Z,16.83
2022-09-07T23:26:22.153Z,16.91
2022-09-07T23:28:55.561Z,16.68
2022-09-07T23:31:23.949Z,16.81
2022-09-07T23:33:51.180Z,16.84
2022-09-07T23:36:19.281Z,16.83
2022-09-07T23:38:46.501Z,16.75
2022-09-07T23:41:14.116Z,16.52
2022-09-07T23:43:41.539Z,16.77
2022-09-07T23:46:10.063Z,16.73
2022-09-07T23:48:37.175Z,16.78
2022-09-07T23:51:04.596Z,16.75
2022-09-07T23:53:31.956Z,16.74
2022-09-07T23:55:59.011Z,16.57
2022-09-07T23:58:26.080Z,16.57
